Time;durP1;ratioP1;P1;durP2;ratioP2;P2;SDS_P1;SDS_P2;PMS_P1;PMS_P2;Temp;Humidity;BMP_temperature;BMP_pressure;BME280_temperature;BME280_humidity;BME280_pressure;Samples;Min_cycle;Max_cycle;Signal;HPM_P1;HPM_P2
2022/07/12 00:00:50;;;;;;;11.82;6.35;;;13.40;99.90;;;;;;5036382;28;20036;-69
2022/07/12 00:03:16;;;;;;;12.63;7.40;;;13.40;99.90;;;;;;5036478;28;20037;-69
2022/07/12 00:05:42;;;;;;;17.35;7.60;;;13.50;99.90;;;;;;5018533;28;20072;-69
2022/07/12 00:08:08;;;;;;;14.48;6.53;;;13.50;99.90;;;;;;5036202;28;20485;-69
2022/07/12 00:10:33;;;;;;;17.52;6.25;;;13.60;99.90;;;;;;5036064;28;20053;-69
2022/07/12 00:12:59;;;;;;;6.75;5.35;;;13.60;99.90;;;;;;5035962;28;20493;-69
2022/07/12 00:15:24;;;;;;;11.00;5.93;;;13.70;99.90;;;;;;5036007;28;20044;-69
2022/07/12 00:17:50;;;;;;;7.78;5.63;;;13.80;99.90;;;;;;5035983;28;20479;-69
2022/07/12 00:20:16;;;;;;;13.18;5.47;;;13.90;99.90;;;;;;5035824;28;20021;-69
2022/07/12 00:22:41;;;;;;;10.23;5.68;;;13.90;99.90;;;;;;5035764;28;20474;-69
2022/07/12 00:25:08;;;;;;;6.82;5.40;;;14.00;99.90;;;;;;5035758;28;20472;-69
2022/07/12 00:27:34;;;;;;;8.13;5.32;;;14.00;99.90;;;;;;5035752;28;20504;-69
2022/07/12 00:29:59;;;;;;;11.45;5.90;;;14.10;99.90;;;;;;5035824;28;20091;-69
2022/07/12 00:32:25;;;;;;;6.78;5.13;;;14.10;99.90;;;;;;5036200;28;20446;-69
2022/07/12 00:34:51;;;;;;;9.88;5.20;;;14.20;99.90;;;;;;5035767;28;20040;-69
2022/07/12 00:37:16;;;;;;;11.73;5.53;;;14.20;99.90;;;;;;5035629;28;20044;-69
2022/07/12 00:39:42;;;;;;;8.80;5.30;;;14.30;99.90;;;;;;5035535;28;20033;-69
2022/07/12 00:42:07;;;;;;;10.25;5.95;;;14.20;99.90;;;;;;5035630;28;20083;-69
2022/07/12 00:44:33;;;;;;;9.25;5.68;;;14.30;99.90;;;;;;5035403;28;20056;-69
2022/07/12 00:47:01;;;;;;;9.18;5.65;;;14.30;99.90;;;;;;5035452;28;20018;-69
2022/07/12 00:49:27;;;;;;;8.10;5.25;;;14.30;99.90;;;;;;5035316;28;20021;-69
2022/07/12 00:51:54;;;;;;;8.25;5.60;;;14.30;99.90;;;;;;5035488;28;20397;-69
2022/07/12 00:54:20;;;;;;;7.20;5.40;;;14.30;99.90;;;;;;5035237;28;20024;-69
2022/07/12 00:56:46;;;;;;;8.18;5.47;;;14.30;99.90;;;;;;5035514;28;20036;-69
2022/07/12 00:59:11;;;;;;;7.00;4.70;;;14.30;99.90;;;;;;5035198;28;20104;-69
2022/07/12 01:01:38;;;;;;;7.18;4.78;;;14.50;99.90;;;;;;5035220;28;20037;-69
2022/07/12 01:04:04;;;;;;;8.38;5.03;;;14.40;99.90;;;;;;5058611;22;20099;-68
2022/07/12 01:06:32;;;;;;;10.38;5.15;;;14.50;99.90;;;;;;5035574;28;20053;-68
2022/07/12 01:09:00;;;;;;;7.30;5.18;;;14.50;99.90;;;;;;5034876;28;20028;-68
2022/07/12 01:11:26;;;;;;;7.78;4.88;;;14.50;99.90;;;;;;5033710;28;20040;-69
2022/07/12 01:13:52;;;;;;;7.53;4.80;;;14.50;99.90;;;;;;5034799;28;20025;-69
2022/07/12 01:16:19;;;;;;;11.23;4.40;;;14.60;99.90;;;;;;5034724;28;20072;-69
2022/07/12 01:18:45;;;;;;;8.57;4.97;;;14.60;99.90;;;;;;5034760;28;20026;-69
2022/07/12 01:21:16;;;;;;;5.70;4.97;;;14.60;99.90;;;;;;5034918;28;20029;-69
2022/07/12 01:23:42;;;;;;;6.35;4.85;;;14.70;99.90;;;;;;5016877;28;20032;-69
2022/07/12 01:26:07;;;;;;;6.93;5.47;;;14.70;99.90;;;;;;5034642;28;20051;-70
2022/07/12 01:28:34;;;;;;;9.50;5.63;;;14.70;99.90;;;;;;5034547;28;20034;-70
2022/07/12 01:31:00;;;;;;;9.80;5.40;;;14.70;99.90;;;;;;5034556;28;20032;-70
2022/07/12 01:33:26;;;;;;;13.48;5.30;;;14.70;99.90;;;;;;5034391;28;20021;-70
2022/07/12 01:35:51;;;;;;;12.90;4.53;;;14.70;99.90;;;;;;5034826;28;20021;-70
2022/07/12 01:38:17;;;;;;;5.93;4.90;;;14.70;99.90;;;;;;5034310;28;20037;-70
2022/07/12 01:40:43;;;;;;;5.78;4.53;;;14.70;99.90;;;;;;5034270;28;20037;-70
2022/07/12 01:43:09;;;;;;;8.85;5.10;;;14.70;99.90;;;;;;5034486;28;20018;-70
2022/07/12 01:45:34;;;;;;;6.28;4.57;;;14.70;99.90;;;;;;5029630;28;20030;-69
2022/07/12 01:48:00;;;;;;;8.25;5.13;;;14.70;99.90;;;;;;5032785;28;20152;-69
2022/07/12 01:50:26;;;;;;;9.45;5.53;;;14.70;99.90;;;;;;5021890;28;20025;-69
2022/07/12 01:52:52;;;;;;;7.55;5.72;;;14.70;99.90;;;;;;5014254;28;20034;-69
2022/07/12 01:55:18;;;;;;;9.07;4.72;;;14.70;99.90;;;;;;5014477;28;20033;-69
2022/07/12 01:57:44;;;;;;;4.22;3.83;;;14.70;99.90;;;;;;5014292;28;20441;-69
2022/07/12 02:00:13;;;;;;;7.28;3.83;;;14.60;99.90;;;;;;5014401;28;20037;-69
2022/07/12 02:02:39;;;;;;;8.15;4.90;;;14.50;99.90;;;;;;5014706;28;20178;-69
2022/07/12 02:05:05;;;;;;;8.68;5.22;;;14.50;99.90;;;;;;5014069;28;20044;-70
2022/07/12 02:07:32;;;;;;;6.22;4.75;;;14.40;99.90;;;;;;5014434;28;20393;-70
2022/07/12 02:09:58;;;;;;;7.22;5.30;;;14.40;99.90;;;;;;5014151;28;20041;-70
2022/07/12 02:12:24;;;;;;;7.20;5.20;;;14.40;99.90;;;;;;5014377;28;20026;-69
2022/07/12 02:14:51;;;;;;;9.27;5.60;;;14.40;99.90;;;;;;5013919;28;20044;-70
2022/07/12 02:17:17;;;;;;;10.82;5.65;;;14.40;99.90;;;;;;5023824;28;20358;-69
2022/07/12 02:19:43;;;;;;;11.07;5.90;;;14.40;99.90;;;;;;5014243;28;20084;-69
2022/07/12 02:22:09;;;;;;;9.77;6.25;;;14.50;99.90;;;;;;5013207;28;20030;-69
2022/07/12 02:24:34;;;;;;;16.23;6.22;;;14.40;99.90;;;;;;5013817;28;20547;-70
2022/07/12 02:27:00;;;;;;;7.82;5.80;;;14.40;99.90;;;;;;5014097;28;20036;-70
2022/07/12 02:29:26;;;;;;;11.48;6.75;;;14.40;99.90;;;;;;5013922;28;20100;-70
2022/07/12 02:31:52;;;;;;;7.07;5.20;;;14.50;99.90;;;;;;5013803;28;20548;-69
2022/07/12 02:34:17;;;;;;;6.78;4.25;;;14.40;99.90;;;;;;5029369;28;20029;-69
2022/07/12 02:36:43;;;;;;;12.65;5.75;;;14.40;99.90;;;;;;5034085;28;20033;-69
2022/07/12 02:39:11;;;;;;;12.63;5.28;;;14.30;99.90;;;;;;5033376;28;20033;-69
2022/07/12 02:41:36;;;;;;;7.15;4.65;;;14.30;99.90;;;;;;5033322;28;20539;-69
2022/07/12 02:44:02;;;;;;;7.05;5.20;;;14.40;99.90;;;;;;5015794;28;20100;-69
2022/07/12 02:46:27;;;;;;;8.02;5.30;;;14.30;99.90;;;;;;5033468;28;20056;-69
2022/07/12 02:48:53;;;;;;;6.25;4.90;;;14.30;99.90;;;;;;5033279;28;20028;-69
2022/07/12 02:51:19;;;;;;;7.35;5.40;;;14.30;99.90;;;;;;5033304;28;20029;-69
2022/07/12 02:53:44;;;;;;;8.02;5.57;;;14.40;99.90;;;;;;5033224;28;20042;-69
2022/07/12 02:56:11;;;;;;;13.18;5.43;;;14.30;99.90;;;;;;5033561;28;20041;-69
2022/07/12 02:58:37;;;;;;;7.60;5.82;;;14.30;99.90;;;;;;5033588;28;20029;-69
2022/07/12 03:01:03;;;;;;;9.00;5.93;;;14.30;99.90;;;;;;5033451;28;20030;-69
2022/07/12 03:03:29;;;;;;;11.02;6.55;;;14.40;99.90;;;;;;5033206;28;20040;-68
2022/07/12 03:05:55;;;;;;;10.38;6.32;;;14.30;99.90;;;;;;5033145;28;20029;-68
2022/07/12 03:08:21;;;;;;;9.93;7.10;;;14.40;99.90;;;;;;5033126;28;20515;-68
2022/07/12 03:10:47;;;;;;;22.20;7.35;;;14.40;99.90;;;;;;5033120;28;20033;-68
2022/07/12 03:13:12;;;;;;;12.95;6.93;;;14.40;99.90;;;;;;5033029;28;20026;-68
2022/07/12 03:15:38;;;;;;;15.05;8.85;;;14.40;99.90;;;;;;5033318;28;20032;-69
2022/07/12 03:18:03;;;;;;;13.23;7.93;;;14.40;99.90;;;;;;5033042;28;20027;-68
2022/07/12 03:20:30;;;;;;;10.90;7.57;;;14.40;99.90;;;;;;5032813;28;20033;-69
2022/07/12 03:22:56;;;;;;;14.68;7.93;;;14.50;99.90;;;;;;5033011;28;20083;-68
2022/07/12 03:25:22;;;;;;;12.98;8.10;;;14.50;99.90;;;;;;5032891;28;20117;-68
2022/07/12 03:27:48;;;;;;;11.50;8.02;;;14.40;99.90;;;;;;5032936;28;20030;-68
2022/07/12 03:30:14;;;;;;;12.63;8.55;;;14.50;99.90;;;;;;5033173;28;20022;-68
2022/07/12 03:32:40;;;;;;;18.02;8.70;;;14.50;99.90;;;;;;5033223;28;20034;-68
2022/07/12 03:35:06;;;;;;;16.52;9.02;;;14.50;99.90;;;;;;5036869;28;20075;-68
2022/07/12 03:37:42;;;;;;;14.73;9.30;;;14.50;99.90;;;;;;5036549;28;20469;-68
2022/07/12 03:40:08;;;;;;;15.25;8.98;;;14.60;99.90;;;;;;5036705;28;20025;-68
2022/07/12 03:42:35;;;;;;;18.00;9.80;;;14.50;99.90;;;;;;5036573;28;20064;-68
2022/07/12 03:45:00;;;;;;;16.20;9.52;;;14.50;99.90;;;;;;5036427;28;20112;-68
2022/07/12 03:47:26;;;;;;;19.88;10.43;;;14.60;99.90;;;;;;5036802;28;20057;-68
2022/07/12 03:49:52;;;;;;;23.15;9.63;;;14.60;99.90;;;;;;5036437;28;20043;-68
2022/07/12 03:52:17;;;;;;;24.00;8.68;;;14.60;99.90;;;;;;5036336;28;20029;-68
2022/07/12 03:54:43;;;;;;;21.35;8.75;;;14.60;99.90;;;;;;5036495;28;20076;-68
2022/07/12 03:57:14;;;;;;;13.30;6.88;;;14.60;99.90;;;;;;5036255;28;20026;-69
2022/07/12 03:59:41;;;;;;;7.80;5.57;;;14.60;99.90;;;;;;5036662;28;20101;-69
2022/07/12 04:02:07;;;;;;;9.40;6.07;;;14.60;99.90;;;;;;5036134;28;20026;-69
2022/07/12 04:04:32;;;;;;;16.33;5.05;;;14.60;99.90;;;;;;5036071;28;20048;-69
2022/07/12 04:06:58;;;;;;;8.65;6.10;;;14.60;99.90;;;;;;5036108;28;20018;-69
2022/07/12 04:09:23;;;;;;;7.65;5.72;;;14.50;99.90;;;;;;5036339;28;20017;-69
2022/07/12 04:11:49;;;;;;;6.45;5.25;;;14.50;99.90;;;;;;5036055;28;20028;-69
2022/07/12 04:14:15;;;;;;;8.02;5.43;;;14.50;99.90;;;;;;5035961;28;20371;-69
2022/07/12 04:16:41;;;;;;;9.45;6.57;;;14.50;99.90;;;;;;5035921;28;20026;-68
2022/07/12 04:19:08;;;;;;;8.10;6.22;;;14.60;99.90;;;;;;5035779;28;20026;-68
2022/07/12 04:21:35;;;;;;;8.10;6.22;;;14.60;99.90;;;;;;5035984;28;20096;-68
2022/07/12 04:24:00;;;;;;;8.75;6.30;;;14.70;99.90;;;;;;5035705;28;20025;-68
2022/07/12 04:26:26;;;;;;;8.35;6.15;;;14.60;99.90;;;;;;5035695;28;20021;-68
2022/07/12 04:28:51;;;;;;;10.20;7.28;;;14.70;99.90;;;;;;5035929;28;20030;-68
2022/07/12 04:31:17;;;;;;;10.38;6.35;;;14.70;99.90;;;;;;5035604;28;20100;-68
2022/07/12 04:33:42;;;;;;;10.00;7.63;;;14.70;99.90;;;;;;5035475;28;20025;-68
2022/07/12 04:36:08;;;;;;;9.55;6.63;;;14.80;99.90;;;;;;5035588;28;20501;-70
2022/07/12 04:38:34;;;;;;;12.45;7.00;;;14.80;99.90;;;;;;5035615;28;20022;-70
2022/07/12 04:40:59;;;;;;;24.02;7.00;;;14.80;99.90;;;;;;5035743;28;20042;-70
2022/07/12 04:43:25;;;;;;;8.20;6.45;;;14.90;99.90;;;;;;5035485;28;20032;-70
2022/07/12 04:45:51;;;;;;;9.70;7.10;;;14.80;99.90;;;;;;5034775;28;20099;-70
2022/07/12 04:48:17;;;;;;;12.60;7.40;;;14.90;99.90;;;;;;5035445;28;20017;-70
2022/07/12 04:50:43;;;;;;;10.45;7.00;;;14.90;99.90;;;;;;5035342;28;20101;-70
2022/07/12 04:53:09;;;;;;;9.00;6.35;;;14.80;99.90;;;;;;5035465;28;20545;-70
2022/07/12 04:55:34;;;;;;;9.15;7.18;;;14.90;99.90;;;;;;5035243;28;20111;-69
2022/07/12 04:58:00;;;;;;;9.00;7.15;;;14.80;99.90;;;;;;5035544;28;20030;-69
2022/07/12 05:00:26;;;;;;;8.55;7.00;;;14.90;99.90;;;;;;5035067;28;20080;-69
2022/07/12 05:02:51;;;;;;;19.52;7.47;;;14.90;99.90;;;;;;5035383;28;20075;-69
2022/07/12 05:05:17;;;;;;;10.13;6.60;;;14.90;99.90;;;;;;5034885;28;20513;-68
2022/07/12 05:07:43;;;;;;;10.23;5.93;;;15.00;99.90;;;;;;5035600;28;20013;-69
2022/07/12 05:10:09;;;;;;;14.45;6.40;;;15.00;99.90;;;;;;5035087;28;20470;-69
2022/07/12 05:12:35;;;;;;;12.27;5.97;;;14.90;99.90;;;;;;5034881;28;20083;-69
2022/07/12 05:15:01;;;;;;;14.20;7.35;;;15.00;99.90;;;;;;5034791;28;20108;-69
2022/07/12 05:17:26;;;;;;;8.60;6.22;;;14.90;99.90;;;;;;5034793;28;20109;-69
2022/07/12 05:19:52;;;;;;;8.95;5.75;;;15.00;99.90;;;;;;5034960;28;20025;-69
2022/07/12 05:22:17;;;;;;;7.45;5.30;;;15.00;99.90;;;;;;5034651;28;20033;-69
2022/07/12 05:24:43;;;;;;;9.02;5.57;;;15.00;99.90;;;;;;5034595;28;20505;-69
2022/07/12 05:27:09;;;;;;;6.93;4.90;;;15.10;99.90;;;;;;5034634;28;20393;-69
2022/07/12 05:29:35;;;;;;;7.15;5.07;;;15.10;99.90;;;;;;5034784;28;20021;-70
2022/07/12 05:32:01;;;;;;;7.65;4.80;;;15.10;99.90;;;;;;5034669;28;20385;-70
2022/07/12 05:34:27;;;;;;;8.38;4.22;;;15.20;99.90;;;;;;5034482;28;20036;-70
2022/07/12 05:36:53;;;;;;;5.78;3.60;;;15.30;99.90;;;;;;5034643;28;20021;-70
2022/07/12 05:39:18;;;;;;;4.07;3.22;;;15.30;99.90;;;;;;5034456;28;20029;-71
2022/07/12 05:41:44;;;;;;;4.65;3.17;;;15.40;99.90;;;;;;5034244;28;20466;-70
2022/07/12 05:44:10;;;;;;;3.10;2.70;;;15.40;99.90;;;;;;5034549;28;20037;-70
2022/07/12 05:46:36;;;;;;;3.53;2.05;;;15.40;99.90;;;;;;5034443;28;20385;-69
2022/07/12 05:49:02;;;;;;;4.55;2.72;;;15.40;99.90;;;;;;5034263;28;20013;-69
2022/07/12 05:54:12;;;;;;;;;;;15.50;99.90;;;;;;5034578;28;20040;-69
2022/07/12 05:56:37;;;;;;;3.20;2.50;;;15.50;99.90;;;;;;5033231;28;20357;-69
2022/07/12 05:59:03;;;;;;;2.10;1.80;;;15.70;99.90;;;;;;5033994;28;20105;-69
2022/07/12 06:01:28;;;;;;;2.88;2.58;;;15.80;99.90;;;;;;5033834;28;20026;-69
2022/07/12 06:03:54;;;;;;;5.78;3.58;;;15.80;99.90;;;;;;5033869;28;20555;-68
2022/07/12 06:06:19;;;;;;;3.22;2.90;;;15.80;99.90;;;;;;5034348;28;20034;-68
2022/07/12 06:08:45;;;;;;;4.55;3.15;;;15.70;99.90;;;;;;5034092;28;20022;-69
2022/07/12 06:11:11;;;;;;;3.17;2.83;;;15.80;99.90;;;;;;5033858;28;20393;-69
2022/07/12 06:13:37;;;;;;;3.25;2.90;;;15.80;99.90;;;;;;5033785;28;20021;-69
2022/07/12 06:16:05;;;;;;;3.17;2.88;;;15.80;99.90;;;;;;5034071;28;20032;-69
2022/07/12 06:18:34;;;;;;;2.65;2.45;;;15.70;99.90;;;;;;5033775;28;20018;-69
2022/07/12 06:21:00;;;;;;;2.80;2.38;;;15.90;99.90;;;;;;5033810;28;20051;-69
2022/07/12 06:23:26;;;;;;;2.65;2.45;;;15.90;99.90;;;;;;5033695;28;20478;-69
2022/07/12 06:25:51;;;;;;;1.90;1.80;;;16.10;99.90;;;;;;5033576;28;20025;-70
2022/07/12 06:28:17;;;;;;;3.22;2.38;;;16.10;99.90;;;;;;5034129;28;20064;-69
2022/07/12 06:30:43;;;;;;;2.55;2.35;;;16.20;99.90;;;;;;5033467;28;20091;-69
2022/07/12 06:33:08;;;;;;;4.22;2.03;;;16.30;99.90;;;;;;5033764;28;20028;-69
2022/07/12 06:35:34;;;;;;;3.88;2.28;;;16.50;99.90;;;;;;5033510;28;20025;-69
2022/07/12 06:38:00;;;;;;;2.33;1.85;;;16.50;99.90;;;;;;5033771;28;20041;-70
2022/07/12 06:40:25;;;;;;;2.55;2.35;;;16.60;99.90;;;;;;5033493;28;20080;-70
2022/07/12 06:42:51;;;;;;;2.72;2.53;;;16.60;99.90;;;;;;5033482;28;20473;-69
2022/07/12 06:45:17;;;;;;;5.10;2.20;;;16.60;99.90;;;;;;5033248;28;20017;-69
2022/07/12 06:47:43;;;;;;;1.58;1.48;;;16.60;99.90;;;;;;5033284;28;20018;-69
2022/07/12 06:50:09;;;;;;;1.50;1.40;;;16.60;99.90;;;;;;5033338;28;20384;-69
2022/07/12 06:52:35;;;;;;;1.90;1.60;;;16.60;99.90;;;;;;5033644;28;20048;-70
2022/07/12 06:55:01;;;;;;;1.30;1.20;;;16.60;99.90;;;;;;5033353;28;20120;-70
2022/07/12 06:57:27;;;;;;;1.50;1.40;;;16.70;99.90;;;;;;5033601;28;20513;-71
2022/07/12 06:59:52;;;;;;;2.25;2.05;;;16.80;99.90;;;;;;5033351;28;20101;-70
2022/07/12 07:02:18;;;;;;;3.47;1.92;;;16.80;99.90;;;;;;5033215;28;20109;-70
2022/07/12 07:04:44;;;;;;;2.20;2.00;;;16.90;99.90;;;;;;5055883;23;20483;-73
2022/07/12 07:07:09;;;;;;;1.67;1.58;;;16.90;99.90;;;;;;5033823;28;20029;-73
2022/07/12 07:09:35;;;;;;;1.40;1.30;;;16.90;99.90;;;;;;5019884;28;20025;-72
2022/07/12 07:12:01;;;;;;;1.50;1.40;;;16.90;99.90;;;;;;5037641;28;20029;-72
2022/07/12 07:14:27;;;;;;;1.63;1.48;;;17.00;99.90;;;;;;5037498;28;20021;-72
2022/07/12 07:16:53;;;;;;;1.23;1.13;;;17.10;99.90;;;;;;5037376;28;20037;-72
2022/07/12 07:19:19;;;;;;;1.30;1.20;;;17.00;99.90;;;;;;5037730;28;20045;-72
2022/07/12 07:21:44;;;;;;;1.98;1.80;;;17.00;99.90;;;;;;5037242;28;20068;-70
2022/07/12 07:24:10;;;;;;;2.38;2.03;;;17.10;99.90;;;;;;5037300;28;20113;-72
2022/07/12 07:26:36;;;;;;;2.20;1.90;;;17.20;99.90;;;;;;5037338;28;20018;-70
2022/07/12 07:31:46;;;;;;;2.10;1.77;;;17.30;99.90;;;;;;5037485;28;20420;-70
2022/07/12 07:34:12;;;;;;;2.85;2.30;;;17.50;99.90;;;;;;5037551;28;20021;-70
2022/07/12 07:36:37;;;;;;;1.30;1.20;;;17.50;99.90;;;;;;5037115;28;20030;-71
2022/07/12 07:39:03;;;;;;;1.52;1.40;;;17.70;99.90;;;;;;5036781;28;20032;-71
2022/07/12 07:41:29;;;;;;;1.67;1.55;;;17.80;99.90;;;;;;5036647;28;20108;-71
2022/07/12 07:43:54;;;;;;;4.43;2.22;;;18.00;99.90;;;;;;5037124;28;20033;-71
2022/07/12 07:46:20;;;;;;;4.13;1.70;;;18.00;99.90;;;;;;5036894;28;20066;-71
2022/07/12 07:48:45;;;;;;;2.72;1.52;;;17.90;99.90;;;;;;5036775;28;20552;-71
2022/07/12 07:51:11;;;;;;;1.60;1.27;;;18.10;99.90;;;;;;5036643;28;20032;-71
2022/07/12 07:53:36;;;;;;;2.85;1.17;;;18.10;99.90;;;;;;5036456;28;20027;-71
2022/07/12 07:56:02;;;;;;;1.30;1.20;;;18.40;99.90;;;;;;5036452;28;20033;-70
2022/07/12 07:58:28;;;;;;;9.50;3.70;;;18.50;99.90;;;;;;5036768;28;20029;-70
2022/07/12 08:00:53;;;;;;;1.33;0.93;;;18.70;99.90;;;;;;5036841;28;20030;-71
2022/07/12 08:03:20;;;;;;;4.55;1.80;;;18.70;99.90;;;;;;5036298;28;20018;-70
2022/07/12 08:05:46;;;;;;;2.70;1.40;;;18.90;99.90;;;;;;5036397;28;20053;-69
2022/07/12 08:08:12;;;;;;;6.68;1.77;;;19.00;99.90;;;;;;5036354;28;20450;-71
2022/07/12 08:10:38;;;;;;;3.85;1.88;;;19.00;99.90;;;;;;5036556;28;20052;-71
2022/07/12 08:13:04;;;;;;;1.63;1.10;;;19.20;99.90;;;;;;5036196;28;20021;-71
2022/07/12 08:15:30;;;;;;;2.05;1.33;;;19.30;99.90;;;;;;5036639;28;20068;-71
2022/07/12 08:17:56;;;;;;;1.48;1.33;;;19.40;99.90;;;;;;5036331;28;20426;-73
2022/07/12 08:20:23;;;;;;;1.30;1.00;;;19.70;99.90;;;;;;5035197;28;20104;-72
2022/07/12 08:22:48;;;;;;;1.50;1.20;;;20.00;99.90;;;;;;5036481;28;20390;-71
2022/07/12 08:25:14;;;;;;;0.77;0.77;;;20.10;99.90;;;;;;5036220;28;20025;-72
2022/07/12 08:27:40;;;;;;;5.10;0.70;;;20.00;99.90;;;;;;5036121;28;20532;-72
2022/07/12 08:30:07;;;;;;;3.00;0.80;;;20.10;99.90;;;;;;5036126;28;20021;-71
2022/07/12 08:32:32;;;;;;;0.82;0.82;;;20.10;99.90;;;;;;5036076;28;20033;-71
2022/07/12 08:34:58;;;;;;;0.70;0.70;;;20.00;99.90;;;;;;5036076;28;20034;-71
2022/07/12 08:37:23;;;;;;;0.98;0.90;;;19.80;99.90;;;;;;5036010;28;20035;-70
2022/07/12 08:39:49;;;;;;;0.77;0.77;;;20.00;99.90;;;;;;5036172;28;20053;-71
2022/07/12 08:42:16;;;;;;;0.88;0.88;;;19.70;99.90;;;;;;5036357;28;20036;-71
2022/07/12 08:44:43;;;;;;;1.20;1.10;;;19.60;99.90;;;;;;5035917;28;20473;-71
2022/07/12 08:47:08;;;;;;;0.73;0.73;;;19.50;99.90;;;;;;5035909;28;20026;-71
2022/07/12 08:49:35;;;;;;;0.82;0.82;;;19.50;99.90;;;;;;5017849;28;20436;-71
2022/07/12 08:52:24;;;;;;;0.98;0.90;;;19.60;99.90;;;;;;5035843;28;20028;-70
2022/07/12 08:54:50;;;;;;;1.20;0.90;;;19.80;99.90;;;;;;5035385;28;20033;-71
2022/07/12 08:57:29;;;;;;;0.68;0.68;;;19.70;99.90;;;;;;5035448;28;20037;-71
2022/07/12 09:00:01;;;;;;;0.60;0.60;;;19.80;99.90;;;;;;5035443;28;20018;-71
2022/07/12 09:02:26;;;;;;;1.00;0.90;;;19.70;99.90;;;;;;5033237;28;20037;-70
2022/07/12 09:05:08;;;;;;;0.77;0.77;;;19.80;99.90;;;;;;5035038;28;20037;-70
2022/07/12 09:07:37;;;;;;;1.88;0.63;;;20.00;99.90;;;;;;5019468;28;20060;-70
2022/07/12 09:10:05;;;;;;;0.60;0.60;;;20.20;99.90;;;;;;5019619;28;20037;-70
2022/07/12 09:12:31;;;;;;;0.60;0.60;;;20.30;99.90;;;;;;5035494;28;20044;-70
2022/07/12 09:15:10;;;;;;;0.52;0.52;;;20.40;99.90;;;;;;5035357;28;20029;-70
2022/07/12 09:17:36;;;;;;;0.60;0.60;;;20.40;99.90;;;;;;5034940;28;20424;-71
2022/07/12 09:20:03;;;;;;;1.13;0.90;;;20.40;99.90;;;;;;5035078;28;20022;-70
2022/07/12 09:22:28;;;;;;;1.02;0.60;;;20.40;99.90;;;;;;5034933;28;20124;-70
2022/07/12 09:24:54;;;;;;;0.80;0.80;;;20.30;99.90;;;;;;5034963;28;20480;-70
2022/07/12 09:27:28;;;;;;;0.90;0.90;;;20.30;99.90;;;;;;5034936;28;20029;-70
2022/07/12 09:29:54;;;;;;;1.25;0.98;;;20.20;99.90;;;;;;5034913;28;20028;-70
2022/07/12 09:37:47;;;;;;;1.40;1.00;;;20.30;99.90;;;;;;5035011;28;20324;-71
2022/07/12 09:40:13;;;;;;;1.52;1.20;;;20.20;99.90;;;;;;5034577;28;20038;-70
2022/07/12 09:42:40;;;;;;;1.10;1.00;;;20.40;99.90;;;;;;5034558;28;20029;-70
2022/07/12 09:45:09;;;;;;;1.05;0.95;;;20.70;99.90;;;;;;5034788;28;20024;-70
2022/07/12 09:47:35;;;;;;;1.25;0.90;;;21.10;99.90;;;;;;5034910;28;20100;-70
2022/07/12 09:50:01;;;;;;;1.48;1.00;;;21.20;99.90;;;;;;5034467;28;20032;-70
2022/07/12 09:52:27;;;;;;;0.95;0.80;;;21.20;99.90;;;;;;5034532;28;20021;-71
2022/07/12 09:54:54;;;;;;;1.20;0.70;;;21.10;99.90;;;;;;5034292;28;20047;-71
2022/07/12 09:57:25;;;;;;;1.13;0.60;;;21.60;99.90;;;;;;5034315;28;20028;-71
2022/07/12 09:59:54;;;;;;;0.82;0.70;;;22.00;99.90;;;;;;5034560;28;20033;-70
2022/07/12 10:02:22;;;;;;;1.10;0.60;;;21.90;99.90;;;;;;5034344;28;20529;-70
2022/07/12 10:04:48;;;;;;;1.15;0.70;;;21.90;99.90;;;;;;5034197;28;20495;-70
2022/07/12 10:07:15;;;;;;;1.30;0.88;;;21.90;99.90;;;;;;5035530;28;20027;-70
2022/07/12 10:09:44;;;;;;;2.25;0.80;;;21.60;99.90;;;;;;5035598;28;20473;-71
2022/07/12 10:12:10;;;;;;;1.67;0.65;;;21.50;99.90;;;;;;5034286;28;20026;-71
2022/07/12 10:14:38;;;;;;;0.40;0.40;;;21.20;99.90;;;;;;5033911;28;20028;-70
2022/07/12 10:17:09;;;;;;;1.45;0.70;;;21.30;99.90;;;;;;5032989;28;20492;-70
2022/07/12 10:19:36;;;;;;;7.50;0.60;;;21.80;99.90;;;;;;5032235;28;20037;-71
2022/07/12 10:22:03;;;;;;;0.85;0.40;;;22.20;99.90;;;;;;5033674;28;20104;-70
2022/07/12 10:24:32;;;;;;;0.93;0.70;;;22.10;99.90;;;;;;5033879;28;20520;-71
2022/07/12 10:27:13;;;;;;;0.65;0.50;;;22.00;99.90;;;;;;5032548;28;20033;-71
2022/07/12 10:29:43;;;;;;;0.75;0.43;;;22.30;99.90;;;;;;5033782;28;20384;-70
2022/07/12 10:32:31;;;;;;;0.40;0.40;;;22.00;99.90;;;;;;5033733;28;20025;-71
2022/07/12 10:35:01;;;;;;;0.60;0.60;;;22.20;99.90;;;;;;5033754;28;20445;-71
2022/07/12 10:37:27;;;;;;;0.50;0.50;;;22.20;99.90;;;;;;5033960;28;20104;-71
2022/07/12 10:40:16;;;;;;;1.38;0.60;;;22.20;99.90;;;;;;5016084;28;20034;-71
2022/07/12 10:43:00;;;;;;;0.73;0.63;;;22.50;99.90;;;;;;5033032;28;20056;-71
2022/07/12 10:45:34;;;;;;;1.40;0.60;;;22.30;99.90;;;;;;5033538;28;20030;-70
2022/07/12 10:48:05;;;;;;;0.68;0.68;;;22.20;99.90;;;;;;5028068;28;20026;-71
2022/07/12 10:50:49;;;;;;;0.60;0.60;;;22.40;99.90;;;;;;5014122;28;20018;-70
2022/07/12 10:53:23;;;;;;;0.88;0.88;;;22.40;99.90;;;;;;5018240;28;20101;-70
2022/07/12 10:56:08;;;;;;;3.53;1.40;;;22.50;99.90;;;;;;5013902;28;20029;-70
2022/07/12 10:58:35;;;;;;;1.35;1.17;;;22.30;99.90;;;;;;5014166;28;20029;-70
2022/07/12 11:01:18;;;;;;;1.30;1.20;;;22.40;99.90;;;;;;5014850;28;20034;-71
2022/07/12 11:03:49;;;;;;;0.88;0.88;;;22.10;99.90;;;;;;5033583;28;20039;-71
2022/07/12 11:06:17;;;;;;;1.30;1.20;;;22.40;99.90;;;;;;5033778;28;20481;-70
2022/07/12 11:09:07;;;;;;;1.38;1.27;;;22.50;99.90;;;;;;5015856;28;20128;-70
2022/07/12 11:11:39;;;;;;;1.08;1.00;;;22.30;99.90;;;;;;5033467;28;20036;-70
2022/07/12 11:14:04;;;;;;;1.58;1.40;;;22.20;99.90;;;;;;5033610;28;20026;-71
2022/07/12 11:16:30;;;;;;;1.35;1.23;;;21.80;99.90;;;;;;5033474;28;20389;-70
2022/07/12 11:18:56;;;;;;;3.40;2.00;;;21.90;99.90;;;;;;5033395;28;20025;-71
2022/07/12 11:21:23;;;;;;;1.50;1.40;;;22.30;99.90;;;;;;5033161;28;20021;-71
2022/07/12 11:23:49;;;;;;;1.75;1.30;;;22.60;99.90;;;;;;5033496;28;20022;-70
2022/07/12 11:26:16;;;;;;;2.20;1.42;;;22.30;99.90;;;;;;5033170;28;20025;-71
2022/07/12 11:28:43;;;;;;;2.38;1.88;;;22.30;99.90;;;;;;5033180;28;20064;-69
2022/07/12 11:31:13;;;;;;;2.30;1.60;;;22.50;99.90;;;;;;5033431;28;20033;-74
2022/07/12 11:33:42;;;;;;;1.30;1.20;;;22.40;99.90;;;;;;5034586;28;20151;-73
2022/07/12 11:36:10;;;;;;;1.33;1.17;;;22.50;99.90;;;;;;5034051;28;20037;-71
2022/07/12 11:38:37;;;;;;;1.48;1.27;;;22.70;99.90;;;;;;5033439;28;20486;-70
2022/07/12 11:41:05;;;;;;;1.48;1.38;;;22.80;99.90;;;;;;5032939;28;20025;-70
2022/07/12 11:43:32;;;;;;;1.25;1.15;;;23.00;99.90;;;;;;5033364;28;20029;-70
2022/07/12 11:45:59;;;;;;;2.00;1.77;;;22.90;99.90;;;;;;5030687;28;20164;-71
2022/07/12 11:48:25;;;;;;;1.83;1.58;;;22.70;99.90;;;;;;5033193;28;20491;-71
2022/07/12 11:50:52;;;;;;;2.70;2.50;;;22.40;99.90;;;;;;5029192;28;20552;-71
2022/07/12 11:53:23;;;;;;;2.65;1.92;;;22.60;99.90;;;;;;5032828;28;20038;-71
2022/07/12 11:55:50;;;;;;;3.83;1.67;;;22.90;99.90;;;;;;5036703;28;20096;-71
2022/07/12 11:58:17;;;;;;;4.15;2.78;;;23.00;99.90;;;;;;5036819;28;20033;-71
2022/07/12 12:00:44;;;;;;;4.65;1.65;;;22.70;99.90;;;;;;5036512;28;20087;-71
2022/07/12 12:03:11;;;;;;;2.25;1.70;;;22.90;99.90;;;;;;5036561;28;20021;-70
2022/07/12 12:05:38;;;;;;;2.25;1.90;;;23.00;99.90;;;;;;5036402;28;20064;-71
2022/07/12 12:08:05;;;;;;;3.20;2.90;;;23.10;99.90;;;;;;5036663;28;20408;-71
2022/07/12 12:10:30;;;;;;;3.15;2.90;;;22.60;99.90;;;;;;5036329;28;20071;-71
2022/07/12 12:12:58;;;;;;;2.85;2.50;;;22.70;99.90;;;;;;5036332;28;20018;-71
2022/07/12 12:15:31;;;;;;;3.22;2.22;;;22.50;99.90;;;;;;5036371;28;20152;-71
2022/07/12 12:18:04;;;;;;;;;;;22.20;99.90;;;;;;5036723;28;20021;-71
2022/07/12 12:20:35;;;;;;;2.78;1.73;;;22.30;99.90;;;;;;5036184;28;19909;-71
2022/07/12 12:23:03;;;;;;;1.65;1.15;;;22.50;99.90;;;;;;5037013;28;20018;-71
2022/07/12 12:25:30;;;;;;;2.55;1.85;;;22.50;99.90;;;;;;5035631;28;20033;-71
2022/07/12 12:28:00;;;;;;;3.67;1.52;;;22.60;99.90;;;;;;5036042;28;20112;-71
2022/07/12 12:30:26;;;;;;;1.50;1.40;;;22.80;99.90;;;;;;5037803;28;20029;-71
2022/07/12 12:33:03;;;;;;;1.27;1.10;;;22.70;99.90;;;;;;5036823;28;20025;-71
2022/07/12 12:35:34;;;;;;;2.95;1.40;;;22.80;99.90;;;;;;5035532;28;20025;-71
2022/07/12 12:38:15;;;;;;;2.00;1.60;;;22.40;99.90;;;;;;5036306;28;20033;-71
2022/07/12 12:40:51;;;;;;;3.67;1.50;;;22.20;99.90;;;;;;5035812;28;20025;-70
2022/07/12 12:43:20;;;;;;;2.78;1.60;;;22.20;99.90;;;;;;5036398;28;20096;-69
2022/07/12 12:45:54;;;;;;;6.00;1.55;;;22.20;99.90;;;;;;5035593;28;20026;-70
2022/07/12 12:48:25;;;;;;;4.68;1.65;;;22.00;99.90;;;;;;5035579;28;20021;-70
2022/07/12 12:50:52;;;;;;;5.97;1.33;;;22.10;99.90;;;;;;5035696;28;20031;-69
2022/07/12 12:53:20;;;;;;;3.08;1.20;;;22.00;99.90;;;;;;5035234;28;20092;-69
2022/07/12 12:55:54;;;;;;;1.98;0.80;;;22.10;99.90;;;;;;5035403;28;20052;-69